Pahranagat National Wildlife Refuge, Nevada Weather observations

Data are for 10 minute period ending at time listed.
 Day   Time   Solar   Ave.   Ave.  Ave.  Vector  Max.   Baro.   Total    
  of    of     Rad.   Air    Rel.  Wind   Wind   Wind  Press.  Precip.   
Year   Day            Temp.  Hum.  Speed  Dir.   Gust                    
2014   (PST)  Kw/m2    F      %     mph   deg.    mph    mb.     in.     
-------------------------------------------------------------------------
 297    0:00   0.00   42.7    70    2.5   340     3.6   905.8    0.00 
 297    0:10   0.00   43.7    70    1.0   314     2.2   905.8    0.00 
 297    0:20   0.00   44.1    68    2.8   318     6.1   905.8    0.00 
 297    0:30   0.00   46.0    62    5.0   306     6.9   905.8    0.00 
 297    0:40   0.00   45.9    60    4.2   304     5.8   906.0    0.00 
 297    0:50   0.00   46.9    60    2.2   341     3.2   906.0    0.00 
 297    1:00   0.00   46.5    60    1.3   330     2.8   906.0    0.00 
 297    1:10   0.00   44.5    63    1.8   350     3.3   906.0    0.00 
 297    1:20   0.00   42.4    67    2.1   320     3.9   906.0    0.00 
 297    1:30   0.00   41.4    70    1.2   293     2.5   906.0    0.00 
 297    1:40   0.00   40.9    71    0.8    10     2.0   905.9    0.00 
 297    1:50   0.00   40.4    72    0.9   261     2.3   905.8    0.00 
 297    2:00   0.00   39.9    74    0.8   336     2.0   905.7    0.00 
 297    2:10   0.00   40.9    71    1.1    37     1.6   905.7    0.00 
 297    2:20   0.00   40.4    72    2.8   330     4.6   905.7    0.00 
 297    2:30   0.00   39.0    74    2.1   338     3.4   905.7    0.00 
 297    2:40   0.00   40.1    75    1.4   317     2.1   905.7    0.00 
 297    2:50   0.00   41.5    71    1.3   346     2.0   905.7    0.00 
 297    3:00   0.00   41.6    69    1.1    22     2.1   905.7    0.00 
 297    3:10   0.00   39.9    72    3.2   340     4.8   905.7    0.00 
 297    3:20   0.00   38.6    75    2.6   288     4.7   905.7    0.00 
 297    3:30   0.00   37.6    79    1.4   195     2.8   905.8    0.00 
 297    3:40   0.00   39.0    78    0.7   253     1.8   905.9    0.00 
 297    3:50   0.00   38.7    78    1.4    32     3.6   906.0    0.00 
 297    4:00   0.00   40.0    74    2.7   343     3.7   906.1    0.00 
 297    4:10   0.00   40.7    71    2.8   324     5.1   906.1    0.00 
 297    4:20   0.00   39.8    72    1.2    30     2.9   906.2    0.00 
 297    4:30   0.00   38.8    74    0.0     0     0.0   906.2    0.00 
 297    4:40   0.00   37.1    80    1.1   119     2.4   906.3    0.00 
 297    4:50   0.00   37.1    79    1.1   199     2.3   906.3    0.00 
 297    5:00   0.00   34.9    84    1.0   308     1.5   906.4    0.00 
 297    5:10   0.00   36.0    89    0.9    55     1.8   906.4    0.00 
 297    5:20   0.00   37.1    85    0.0     0     0.0   906.5    0.00 
 297    5:30   0.00   37.2    82    0.0     0     0.0   906.5    0.00 
 297    5:40   0.00   34.8    82    1.4   285     2.9   906.6    0.00 
 297    5:50   0.00   33.2    87    0.4    50     1.3   906.7    0.00 
 297    6:00   0.00   34.5    88    1.5    50     2.9   906.8    0.00 
 297    6:10   0.01   37.3    82    1.5    75     2.3   906.9    0.00 
 297    6:20   0.02   38.2    76    1.0    60     2.0   907.0    0.00 
 297    6:30   0.05   36.8    78    1.0   258     3.0   907.1    0.00 
 297    6:40   0.07   37.6    80    0.4   194     1.8   907.1    0.00 
 297    6:50   0.10   40.2    78    1.4   113     2.2   907.3    0.00 
 297    7:00   0.12   42.8    73    1.0   137     2.3   907.5    0.00 
 297    7:10   0.15   46.2    65    0.8   134     2.3   907.6    0.00 
 297    7:20   0.17   50.1    58    0.4   150     1.2   907.7    0.00 
 297    7:30   0.20   53.0    52    0.9   164     2.4   908.0    0.00 
 297    7:40   0.23   53.6    52    1.5    76     3.5   908.1    0.00 
 297    7:50   0.26   55.3    48    3.5   342     7.8   908.2    0.00 
 297    8:00   0.28   56.1    46    5.2   333     7.6   908.2    0.00 
 297    8:10   0.31   57.6    44    3.8   312     7.2   908.3    0.00 
 297    8:20   0.34   59.3    41    2.1   278     4.7   908.4    0.00 
 297    8:30   0.36   61.1    39    2.0   221     3.7   908.5    0.00 
 297    8:40   0.39   61.7    38    2.3   233     5.8   908.4    0.00 
 297    8:50   0.41   62.8    35    2.5   207     4.9   908.3    0.00 
 297    9:00   0.43   63.9    34    2.7   236     4.7   908.3    0.00 
 297    9:10   0.46   65.2    32    1.9   239     3.9   908.2    0.00 
 297    9:20   0.47   66.9    31    1.7   248     3.7   908.1    0.00 
 297    9:30   0.49   68.2    29    2.6   350     5.8   907.9    0.00 
 297    9:40   0.51   69.2    29    3.0   340     6.7   907.8    0.00 
 297    9:50   0.53   71.0    28    2.5   323     6.2   907.7    0.00 
 297   10:00   0.54   72.4    26    3.6   345     8.3   907.6    0.00 
 297   10:10   0.55   72.9    25    2.7   298     5.2   907.4    0.00 
 297   10:20   0.57   74.3    25    2.5   210     5.4   907.3    0.00 
 297   10:30   0.58   75.1    24    2.6   241     5.5   907.0    0.00 
 297   10:40   0.58   76.1    24    3.0   219     7.4   906.9    0.00 
 297   10:50   0.59   77.3    22    2.6   157     6.4   906.7    0.00 
 297   11:00   0.60   78.8    22    4.2   150     9.1   906.4    0.00 
 297   11:10   0.60   78.8    22    5.6   141     9.6   906.2    0.00 
 297   11:20   0.61   79.5    22    7.6   149    12.3   906.0    0.00 
 297   11:30   0.61   80.0    22    8.7   161    15.2   905.7    0.00 
 297   11:40   0.61   80.1    21    9.8   151    16.5   905.6    0.00 
 297   11:50   0.61   80.1    21    9.8   155    18.0   905.3    0.00 
 297   12:00   0.60   80.1    21   10.5   149    16.8   905.2    0.00 
 297   12:10   0.60   80.5    21    8.9   147    14.2   905.0    0.00 
 297   12:20   0.59   81.1    20   10.5   157    16.8   904.8    0.00 
 297   12:30   0.59   80.5    21   10.7   152    16.9   904.6    0.00 
 297   12:40   0.58   80.8    21   10.9   153    18.0   904.5    0.00 
 297   12:50   0.57   81.1    20   11.3   145    18.1   904.3    0.00 
 297   13:00   0.55   80.9    20   10.5   150    17.7   904.3    0.00 
 297   13:10   0.54   81.1    20   11.6   151    19.6   904.1    0.00 
 297   13:20   0.53   81.4    20   11.1   150    18.2   904.0    0.00 
 297   13:30   0.51   81.6    20   11.4   152    17.0   903.9    0.00 
 297   13:40   0.49   81.5    20   11.9   151    18.3   903.8    0.00 
 297   13:50   0.47   81.3    20   11.5   152    16.7   903.7    0.00 
 297   14:00   0.45   81.4    19   11.3   159    19.1   903.7    0.00 
 297   14:10   0.43   81.4    19   11.5   159    17.2   903.7    0.00 
 297   14:20   0.41   81.2    20   11.2   153    17.2   903.7    0.00 
 297   14:30   0.38   80.8    19   12.0   160    17.2   903.7    0.00 
 297   14:40   0.36   80.4    20   12.6   155    17.8   903.6    0.00 
 297   14:50   0.33   80.5    20   10.6   158    16.1   903.5    0.00 
 297   15:00   0.30   80.3    20   12.0   158    20.0   903.4    0.00 
 297   15:10   0.27   79.5    20   12.6   156    19.6   903.3    0.00 
 297   15:20   0.25   79.4    20   11.7   155    17.6   903.3    0.00 
 297   15:30   0.22   78.9    21   11.2   155    17.4   903.2    0.00 
 297   15:40   0.19   78.6    21   11.1   149    17.8   903.2    0.00 
 297   15:50   0.16   78.2    22   10.8   152    16.2   903.1    0.00 
 297   16:00   0.13   77.7    22   10.7   151    15.8   903.1    0.00 
 297   16:10   0.11   76.9    23    8.9   159    13.7   903.1    0.00 
 297   16:20   0.08   76.0    23    7.4   158    12.0   903.1    0.00 
 297   16:30   0.03   74.6    24    8.0   160    12.1   903.1    0.00 
 297   16:40   0.01   73.6    26    7.8   159    13.7   903.2    0.00 
 297   16:50   0.01   72.2    27    6.5   155     9.6   903.3    0.00 
 297   17:00   0.00   70.6    28    5.9   147     8.4   903.4    0.00 
 297   17:10   0.00   68.8    30    5.0   142     6.3   903.5    0.00 
 297   17:20   0.00   67.4    31    5.6   130     6.6   903.5    0.00 
 297   17:30   0.00   67.3    31    5.3   129     6.7   903.7    0.00 
 297   17:40   0.00   67.2    31    4.6   136     5.7   903.8    0.00 
 297   17:50   0.00   66.0    32    2.7   149     5.0   903.9    0.00 
 297   18:00   0.00   63.7    35    1.6   129     2.3   904.0    0.00 
 297   18:10   0.00   62.5    37    1.8   130     3.1   904.1    0.00 
 297   18:20   0.00   61.7    37    1.0   322     2.8   904.2    0.00 
 297   18:30   0.00   58.0    42    1.8   341     3.6   904.3    0.00 
 297   18:40   0.00   58.6    42    2.2   350     3.5   904.3    0.00 
 297   18:50   0.00   56.6    43    2.3   330     3.5   904.4    0.00 
 297   19:00   0.00   51.0    53    3.9   327     5.1   904.4    0.00 
 297   19:10   0.00   49.2    56    3.4   331     4.8   904.4    0.00 
 297   19:20   0.00   49.2    56    3.5   329     4.4   904.5    0.00 
 297   19:30   0.00   48.8    57    3.1   326     4.7   904.6    0.00 
 297   19:40   0.00   48.3    59    2.2   313     2.7   904.6    0.00 
 297   19:50   0.00   48.7    57    2.5   354     3.4   904.6    0.00 
 297   20:00   0.00   49.4    57    2.0   331     2.9   904.6    0.00 
 297   20:10   0.00   49.0    58    0.8   348     1.9   904.6    0.00 
 297   20:20   0.00   49.2    59    1.8   357     2.9   904.7    0.00 
 297   20:30   0.00   48.2    58    1.9   300     2.7   904.7    0.00 
 297   20:40   0.00   47.1    64    1.4   261     3.0   904.8    0.00 
 297   20:50   0.00   46.9    65    1.4   308     2.4   904.8    0.00 
 297   21:00   0.00   47.9    63    0.6   356     1.8   904.9    0.00 
 297   21:10   0.00   48.8    61    1.5     0     2.1   904.9    0.00 
 297   21:20   0.00   48.3    61    1.9   342     2.9   905.2    0.00 
 297   21:30   0.00   47.7    63    2.1   349     3.3   905.2    0.00 
 297   21:40   0.00   47.4    63    2.0   332     3.4   905.2    0.00 
 297   21:50   0.00   47.9    62    2.2   331     3.3   905.1    0.00 
 297   22:00   0.00   45.3    67    1.3   330     2.4   905.1    0.00 
 297   22:10   0.00   44.9    70    1.1   290     3.1   905.1    0.00 
 297   22:20   0.00   44.6    72    2.0   298     4.1   905.0    0.00 
 297   22:30   0.00   44.9    70    2.7   311     3.9   904.9    0.00 
 297   22:40   0.00   44.5    70    3.2   284     4.5   904.9    0.00 
 297   22:50   0.00   45.0    71    3.5   302     5.3   904.9    0.00 
 297   23:00   0.00   44.8    72    3.0   287     4.2   904.9    0.00 
 297   23:10   0.00   47.1    68    3.7   301     5.3   904.9    0.00 
 297   23:20   0.00   45.4    69    2.1   338     3.7   904.8    0.00 
 297   23:30   0.00   46.0    71    3.1   328     8.1   904.9    0.00 
 297   23:40   0.00   48.0    68    5.0   312     8.9   905.0    0.00 

Return to Pahranagat N. Wildlife Refuge graphs page.


Western Regional Climate Center,wrcc@dri.edu